createdAt,value
2019-01-20T00:02:12.231Z,39.03
2019-01-20T00:04:43.680Z,39.80
2019-01-20T00:07:13.955Z,40.50
2019-01-20T00:09:44.258Z,37.50
2019-01-20T00:12:14.671Z,41.68
2019-01-20T00:14:45.017Z,38.42
2019-01-20T00:17:15.675Z,39.48
2019-01-20T00:19:45.948Z,39.58
2019-01-20T00:22:16.283Z,36.88
2019-01-20T00:24:46.601Z,35.60
2019-01-20T00:27:16.903Z,37.73
2019-01-20T00:29:47.271Z,36.55
2019-01-20T00:32:17.582Z,36.75
2019-01-20T00:34:47.812Z,36.33
2019-01-20T00:37:18.488Z,34.67
2019-01-20T00:39:48.788Z,35.83
2019-01-20T00:42:19.094Z,35.65
2019-01-20T00:44:49.503Z,37.25
2019-01-20T00:47:19.741Z,34.45
2019-01-20T00:49:50.077Z,34.30
2019-01-20T00:52:20.315Z,34.75
2019-01-20T00:54:50.542Z,35.88
2019-01-20T00:57:20.885Z,35.17
2019-01-20T00:59:54.155Z,31.77
2019-01-20T01:02:24.532Z,33.98
2019-01-20T01:04:54.856Z,33.48
2019-01-20T01:07:25.198Z,33.73
2019-01-20T01:09:55.487Z,32.58
2019-01-20T01:12:26.534Z,33.88
2019-01-20T01:14:56.844Z,31.10
2019-01-20T01:17:27.236Z,31.75
2019-01-20T01:19:57.594Z,31.70
2019-01-20T01:22:27.888Z,32.33
2019-01-20T01:24:58.339Z,29.42
2019-01-20T01:27:28.656Z,30.20
2019-01-20T01:31:04.048Z,29.45
2019-01-20T01:33:34.418Z,29.60
2019-01-20T01:36:04.717Z,31.05
2019-01-20T01:38:35.090Z,42.10
2019-01-20T01:41:05.315Z,39.80
2019-01-20T01:43:36.750Z,40.67
2019-01-20T01:46:06.926Z,41.40
2019-01-20T01:48:37.349Z,42.23
2019-01-20T01:51:07.729Z,41.70
2019-01-20T01:53:38.043Z,43.50
2019-01-20T01:56:08.429Z,42.30
2019-01-20T01:58:38.790Z,44.13
2019-01-20T02:01:10.726Z,42.15
2019-01-20T02:03:41.360Z,42.20
2019-01-20T02:06:11.801Z,43.50
2019-01-20T02:08:42.077Z,40.65
2019-01-20T02:11:12.696Z,39.95
2019-01-20T02:13:44.116Z,44.35
2019-01-20T02:16:15.443Z,43.25
2019-01-20T02:18:45.998Z,39.60
2019-01-20T02:21:16.246Z,43.65
2019-01-20T02:23:46.655Z,42.60
2019-01-20T02:26:16.917Z,42.40
2019-01-20T02:28:47.465Z,41.95
2019-01-20T02:31:17.731Z,44.08
2019-01-20T02:33:48.079Z,38.92
2019-01-20T02:36:18.432Z,37.85
2019-01-20T02:38:48.747Z,36.73
2019-01-20T02:41:19.022Z,37.83
2019-01-20T02:43:49.280Z,37.23
2019-01-20T02:46:19.636Z,42.33
2019-01-20T02:48:50.072Z,37.58
2019-01-20T02:51:20.532Z,38.05
2019-01-20T02:53:50.828Z,40.98
2019-01-20T02:56:21.128Z,36.08
2019-01-20T02:58:51.485Z,39.18
2019-01-20T03:01:21.779Z,35.60
2019-01-20T03:03:52.003Z,37.23
2019-01-20T03:06:22.520Z,38.25
2019-01-20T03:08:52.860Z,35.65
2019-01-20T03:11:24.208Z,35.03
2019-01-20T03:13:54.555Z,37.35
2019-01-20T03:16:24.853Z,35.70
2019-01-20T03:18:55.750Z,34.27
2019-01-20T03:21:26.122Z,33.67
2019-01-20T03:23:56.417Z,33.67
2019-01-20T03:26:26.709Z,33.88
2019-01-20T03:28:57.042Z,33.13
2019-01-20T03:31:29.385Z,33.20
2019-01-20T03:33:59.649Z,30.55
2019-01-20T03:36:30.026Z,31.48
2019-01-20T03:39:00.380Z,31.40
2019-01-20T03:41:30.759Z,31.23
2019-01-20T03:44:04.111Z,31.42
2019-01-20T03:46:34.435Z,30.77
2019-01-20T03:49:04.721Z,29.48
2019-01-20T03:51:35.079Z,31.23
2019-01-20T03:54:06.668Z,30.50
2019-01-20T03:56:38.015Z,30.32
2019-01-20T03:59:08.337Z,30.32
2019-01-20T04:01:38.583Z,30.10
2019-01-20T04:04:08.842Z,28.73
2019-01-20T04:06:39.205Z,28.07
2019-01-20T04:09:09.597Z,30.48
2019-01-20T04:11:39.890Z,27.65
2019-01-20T04:14:10.191Z,28.32
2019-01-20T04:16:41.920Z,28.98
2019-01-20T04:19:12.161Z,26.57
2019-01-20T04:21:42.465Z,30.88
2019-01-20T04:24:12.756Z,28.42
2019-01-20T04:26:43.046Z,29.52
2019-01-20T04:29:13.499Z,25.55
2019-01-20T04:31:43.860Z,28.10
2019-01-20T04:34:14.145Z,26.20
2019-01-20T04:36:44.466Z,25.12
2019-01-20T04:39:14.845Z,28.38
2019-01-20T04:41:45.320Z,26.27
2019-01-20T04:44:15.577Z,26.05
2019-01-20T04:46:46.378Z,25.95
2019-01-20T04:49:16.670Z,26.27
2019-01-20T04:51:46.906Z,23.98
2019-01-20T04:54:17.394Z,22.75
2019-01-20T04:56:47.695Z,24.50
2019-01-20T04:59:18.197Z,23.62
2019-01-20T05:01:48.478Z,24.15
2019-01-20T05:04:18.757Z,24.92
2019-01-20T05:06:48.982Z,24.90
2019-01-20T05:09:19.355Z,23.00
2019-01-20T05:11:49.582Z,22.73
2019-01-20T05:14:19.957Z,22.87
2019-01-20T05:16:53.373Z,21.52
2019-01-20T05:19:23.694Z,22.07
2019-01-20T05:21:54.354Z,21.40
2019-01-20T05:24:24.673Z,20.43
2019-01-20T05:26:54.974Z,20.90
2019-01-20T05:29:25.249Z,21.70
2019-01-20T05:31:55.533Z,21.15
2019-01-20T05:34:26.067Z,22.37
2019-01-20T05:36:56.289Z,20.60
2019-01-20T05:39:27.594Z,19.45
2019-01-20T05:41:57.911Z,20.25
2019-01-20T05:44:28.254Z,19.87
2019-01-20T05:46:58.519Z,18.75
2019-01-20T05:49:28.796Z,20.68
2019-01-20T05:51:59.231Z,20.95
2019-01-20T05:54:29.485Z,19.70
2019-01-20T05:56:59.809Z,19.20
2019-01-20T05:59:30.109Z,18.82
2019-01-20T06:02:01.600Z,19.90
2019-01-20T06:04:31.808Z,19.70
2019-01-20T06:07:02.144Z,18.95
2019-01-20T06:09:32.437Z,17.15
2019-01-20T06:12:02.823Z,17.92
2019-01-20T06:14:33.249Z,18.05
2019-01-20T06:17:03.621Z,16.50
2019-01-20T06:19:33.923Z,16.50
2019-01-20T06:22:04.608Z,16.45
2019-01-20T06:24:34.976Z,25.27
2019-01-20T06:27:05.346Z,24.27
2019-01-20T06:29:35.898Z,24.00
2019-01-20T06:32:09.689Z,26.27
2019-01-20T06:34:40.029Z,25.85
2019-01-20T06:37:10.335Z,30.15
2019-01-20T06:39:40.690Z,30.97
2019-01-20T06:42:11.033Z,31.77
2019-01-20T06:44:41.352Z,33.10
2019-01-20T06:47:11.613Z,29.18
2019-01-20T06:49:41.831Z,28.27
2019-01-20T06:52:12.008Z,31.70
2019-01-20T06:54:42.307Z,34.67
2019-01-20T06:57:12.615Z,32.38
2019-01-20T06:59:42.845Z,35.43
2019-01-20T07:02:13.121Z,41.33
2019-01-20T07:04:43.389Z,39.33
2019-01-20T07:07:13.704Z,42.23
2019-01-20T07:09:43.949Z,41.48
2019-01-20T07:12:14.552Z,41.73
2019-01-20T07:14:45.788Z,36.90
2019-01-20T07:17:16.218Z,37.28
2019-01-20T07:19:46.556Z,36.20
2019-01-20T07:22:16.915Z,30.68
2019-01-20T07:24:47.165Z,32.63
2019-01-20T07:27:17.509Z,30.17
2019-01-20T07:29:47.824Z,33.45
2019-01-20T07:32:18.098Z,30.32
2019-01-20T07:34:48.461Z,30.80
2019-01-20T07:37:18.804Z,30.62
2019-01-20T07:39:49.091Z,31.17
2019-01-20T07:42:20.261Z,28.42
2019-01-20T07:44:50.567Z,31.42
2019-01-20T07:47:20.877Z,27.67
2019-01-20T07:49:51.182Z,28.98
2019-01-20T07:52:21.442Z,28.98
2019-01-20T07:54:51.812Z,30.80
2019-01-20T07:57:22.087Z,28.35
2019-01-20T07:59:52.835Z,28.20
2019-01-20T08:02:25.179Z,33.50
2019-01-20T08:04:56.624Z,43.02
2019-01-20T08:07:28.087Z,38.42
2019-01-20T08:09:58.832Z,47.93
2019-01-20T08:12:29.814Z,60.60
2019-01-20T08:15:00.763Z,66.70
2019-01-20T08:17:31.105Z,67.40
2019-01-20T08:20:01.759Z,60.78
2019-01-20T08:22:33.252Z,52.83
2019-01-20T08:25:03.461Z,63.90
2019-01-20T08:27:33.805Z,63.45
2019-01-20T08:30:04.103Z,66.75
2019-01-20T08:32:34.415Z,64.87
2019-01-20T08:35:05.174Z,60.00
2019-01-20T08:37:36.225Z,62.48
2019-01-20T08:40:08.948Z,55.65
2019-01-20T08:42:42.249Z,48.40
2019-01-20T08:45:17.131Z,55.30
2019-01-20T08:47:51.914Z,52.93
2019-01-20T08:50:22.314Z,52.67
2019-01-20T08:52:53.184Z,56.25
2019-01-20T08:55:23.450Z,67.42
2019-01-20T08:57:53.819Z,69.22
2019-01-20T09:00:24.080Z,75.22
2019-01-20T09:02:54.565Z,78.20
2019-01-20T09:05:25.208Z,79.77
2019-01-20T09:07:55.940Z,84.20
2019-01-20T09:10:28.115Z,79.10
2019-01-20T09:13:01.476Z,78.28
2019-01-20T09:15:32.679Z,69.77
2019-01-20T09:18:02.870Z,64.20
2019-01-20T09:20:33.105Z,54.95
2019-01-20T09:23:03.335Z,57.08
2019-01-20T09:25:33.555Z,59.27
2019-01-20T09:28:04.308Z,57.03
2019-01-20T09:30:34.601Z,57.58
2019-01-20T09:33:04.894Z,57.33
2019-01-20T09:35:35.828Z,56.92
2019-01-20T09:38:08.430Z,60.17
2019-01-20T09:40:38.716Z,60.73
2019-01-20T09:43:09.044Z,61.23
2019-01-20T09:45:40.117Z,76.15
2019-01-20T09:48:10.401Z,82.10
2019-01-20T09:50:40.790Z,71.75
2019-01-20T09:53:11.031Z,72.32
2019-01-20T09:55:44.083Z,73.60
2019-01-20T09:58:14.361Z,68.35
2019-01-20T10:00:44.687Z,67.53
2019-01-20T10:03:16.275Z,65.40
2019-01-20T10:05:46.812Z,63.55
2019-01-20T10:08:17.144Z,65.52
2019-01-20T10:10:47.479Z,59.55
2019-01-20T10:13:18.834Z,61.15
2019-01-20T10:15:52.266Z,63.17
2019-01-20T10:18:22.681Z,61.88
2019-01-20T10:20:52.920Z,56.70
2019-01-20T10:23:23.214Z,60.38
2019-01-20T10:25:53.606Z,58.65
2019-01-20T10:28:26.093Z,57.35
2019-01-20T10:30:56.447Z,53.02
2019-01-20T10:33:26.861Z,56.63
2019-01-20T10:36:06.087Z,58.95
2019-01-20T10:38:37.355Z,58.17
2019-01-20T10:41:08.303Z,62.00
2019-01-20T10:43:38.627Z,61.37
2019-01-20T10:46:09.855Z,64.62
2019-01-20T10:48:40.227Z,61.30
2019-01-20T10:51:10.558Z,64.92
2019-01-20T10:53:40.770Z,62.30
2019-01-20T10:56:11.284Z,60.63
2019-01-20T10:58:41.624Z,62.03
2019-01-20T11:01:11.893Z,60.75
2019-01-20T11:03:42.185Z,61.60
2019-01-20T11:06:12.685Z,60.70
2019-01-20T11:08:42.948Z,61.37
2019-01-20T11:11:13.222Z,60.23
2019-01-20T11:13:45.773Z,58.80
2019-01-20T11:16:16.126Z,60.45
2019-01-20T11:18:48.982Z,59.42
2019-01-20T11:21:19.201Z,58.78
2019-01-20T11:23:49.652Z,59.05
2019-01-20T11:26:19.937Z,56.40
2019-01-20T11:28:50.244Z,60.38
2019-01-20T11:31:20.567Z,56.42
2019-01-20T11:33:50.818Z,56.45
2019-01-20T11:36:21.053Z,55.70
2019-01-20T11:38:51.391Z,54.67
2019-01-20T11:41:21.688Z,54.90
2019-01-20T11:43:52.220Z,55.05
2019-01-20T11:46:22.466Z,58.92
2019-01-20T11:48:52.733Z,55.75
2019-01-20T11:51:22.962Z,53.35
2019-01-20T11:53:53.265Z,52.43
2019-01-20T11:56:23.600Z,53.23
2019-01-20T11:58:53.950Z,51.50
2019-01-20T12:01:24.372Z,53.78
2019-01-20T12:03:54.618Z,53.15
2019-01-20T12:06:25.557Z,51.90
2019-01-20T12:08:55.925Z,51.98
2019-01-20T12:11:26.277Z,51.70
2019-01-20T12:13:56.575Z,47.95
2019-01-20T12:16:26.821Z,48.48
2019-01-20T12:18:57.854Z,48.98
2019-01-20T12:21:28.101Z,48.95
2019-01-20T12:23:58.562Z,48.52
2019-01-20T12:26:28.826Z,46.50
2019-01-20T12:28:59.072Z,47.03
2019-01-20T12:31:29.339Z,47.62
2019-01-20T12:33:59.600Z,49.50
2019-01-20T12:36:29.847Z,46.60
2019-01-20T12:39:00.198Z,43.05
2019-01-20T12:41:30.471Z,44.15
2019-01-20T12:44:00.755Z,45.67
2019-01-20T12:46:31.116Z,44.67
2019-01-20T12:49:01.590Z,46.65
2019-01-20T12:51:31.955Z,41.77
2019-01-20T12:54:02.535Z,43.13
2019-01-20T12:56:32.872Z,42.38
2019-01-20T12:59:03.254Z,44.00
2019-01-20T13:01:33.607Z,40.88
2019-01-20T13:04:03.914Z,40.90
2019-01-20T13:06:34.658Z,39.60
2019-01-20T13:09:08.077Z,41.45
2019-01-20T13:11:38.449Z,40.00
2019-01-20T13:14:08.751Z,39.15
2019-01-20T13:16:39.022Z,40.52
2019-01-20T13:19:09.289Z,39.50
2019-01-20T13:21:39.625Z,41.30
2019-01-20T13:24:09.926Z,37.08
2019-01-20T13:26:40.184Z,36.83
2019-01-20T13:29:10.460Z,38.08
2019-01-20T13:31:40.770Z,37.25
2019-01-20T13:34:11.024Z,37.23
2019-01-20T13:36:41.593Z,37.23
2019-01-20T13:39:13.854Z,36.45
2019-01-20T13:41:44.128Z,35.15
2019-01-20T13:44:15.517Z,36.50
2019-01-20T13:46:45.802Z,35.58
2019-01-20T13:49:16.061Z,35.52
2019-01-20T13:51:46.365Z,34.90
2019-01-20T13:54:16.631Z,33.67
2019-01-20T13:56:46.934Z,33.45
2019-01-20T13:59:17.323Z,33.25
2019-01-20T14:01:47.562Z,33.53
2019-01-20T14:04:17.797Z,33.80
2019-01-20T14:06:48.725Z,32.65
2019-01-20T14:09:19.583Z,33.02
2019-01-20T14:11:49.986Z,31.77
2019-01-20T14:14:20.287Z,30.23
2019-01-20T14:16:51.644Z,30.62
2019-01-20T14:19:22.032Z,29.12
2019-01-20T14:21:52.680Z,30.17
2019-01-20T14:24:23.121Z,30.30
2019-01-20T14:26:54.025Z,29.05
2019-01-20T14:29:24.464Z,29.35
2019-01-20T14:31:54.868Z,30.10
2019-01-20T14:34:25.351Z,31.00
2019-01-20T14:36:56.528Z,33.05
2019-01-20T14:39:27.018Z,29.27
2019-01-20T14:41:57.602Z,27.90
2019-01-20T14:44:28.096Z,29.00
2019-01-20T14:46:58.898Z,28.98
2019-01-20T14:49:29.231Z,28.80
2019-01-20T14:52:00.166Z,29.23
2019-01-20T14:54:32.822Z,27.93
2019-01-20T14:57:06.490Z,27.50
2019-01-20T14:59:37.568Z,27.93
2019-01-20T15:02:11.680Z,27.67
2019-01-20T15:04:42.282Z,28.02
2019-01-20T15:07:12.727Z,29.18
2019-01-20T15:09:43.639Z,32.48
2019-01-20T15:12:14.364Z,31.97
2019-01-20T15:14:44.695Z,33.48
2019-01-20T15:17:15.006Z,32.00
2019-01-20T15:19:46.314Z,32.20
2019-01-20T15:22:16.853Z,35.90
2019-01-20T15:24:47.644Z,33.88
2019-01-20T15:27:18.366Z,35.80
2019-01-20T15:29:49.230Z,31.90
2019-01-20T15:32:19.562Z,33.20
2019-01-20T15:34:50.548Z,33.08
2019-01-20T15:37:20.836Z,34.25
2019-01-20T15:39:51.218Z,32.03
2019-01-20T15:42:21.530Z,33.08
2019-01-20T15:44:51.969Z,30.50
2019-01-20T15:47:22.283Z,31.95
2019-01-20T15:49:52.689Z,32.45
2019-01-20T15:52:23.079Z,30.02
2019-01-20T15:54:53.441Z,31.37
2019-01-20T15:57:23.749Z,32.05
2019-01-20T15:59:54.113Z,32.70
2019-01-20T16:02:24.849Z,34.85
2019-01-20T16:04:55.354Z,34.45
2019-01-20T16:07:25.636Z,32.33
2019-01-20T16:09:56.074Z,32.88
2019-01-20T16:12:26.434Z,30.48
2019-01-20T16:14:56.746Z,33.90
2019-01-20T16:17:27.033Z,30.00
2019-01-20T16:19:57.375Z,32.58
2019-01-20T16:22:28.781Z,30.17
2019-01-20T16:24:59.251Z,30.10
2019-01-20T16:27:29.761Z,28.32
2019-01-20T16:30:00.353Z,32.63
2019-01-20T16:32:31.436Z,27.52
2019-01-20T16:35:01.674Z,29.57
2019-01-20T16:37:32.045Z,29.10
2019-01-20T16:40:02.334Z,29.92
2019-01-20T16:42:32.768Z,28.70
2019-01-20T16:45:03.184Z,31.95
2019-01-20T16:47:33.541Z,29.35
2019-01-20T16:50:03.921Z,29.45
2019-01-20T16:52:34.302Z,30.55
2019-01-20T16:55:05.169Z,30.55
2019-01-20T16:57:35.451Z,32.40
2019-01-20T17:00:07.044Z,30.88
2019-01-20T17:02:37.353Z,30.50
2019-01-20T17:05:09.229Z,33.85
2019-01-20T17:07:39.650Z,32.42
2019-01-20T17:10:13.891Z,31.23
2019-01-20T17:12:44.216Z,31.37
2019-01-20T17:15:20.574Z,33.67
2019-01-20T17:17:50.922Z,35.38
2019-01-20T17:20:21.219Z,37.95
2019-01-20T17:22:51.646Z,36.93
2019-01-20T17:25:21.948Z,34.70
2019-01-20T17:27:53.787Z,36.58
2019-01-20T17:30:26.383Z,35.13
2019-01-20T17:32:57.791Z,33.58
2019-01-20T17:35:28.305Z,37.28
2019-01-20T17:37:58.576Z,35.23
2019-01-20T17:40:28.937Z,36.08
2019-01-20T17:42:59.176Z,37.48
2019-01-20T17:45:31.694Z,38.90
2019-01-20T17:48:01.961Z,42.40
2019-01-20T17:50:34.592Z,40.15
2019-01-20T17:53:06.769Z,46.37
2019-01-20T17:55:37.309Z,50.15
2019-01-20T17:58:08.065Z,59.93
2019-01-20T18:00:41.935Z,67.37
2019-01-20T18:03:12.190Z,64.12
2019-01-20T18:05:42.528Z,62.62
2019-01-20T18:08:12.794Z,64.55
2019-01-20T18:10:43.142Z,69.05
2019-01-20T18:13:14.575Z,68.80
2019-01-20T18:15:46.061Z,66.22
2019-01-20T18:18:19.434Z,67.40
2019-01-20T18:20:50.099Z,63.52
2019-01-20T18:23:20.981Z,61.10
2019-01-20T18:25:51.758Z,61.20
2019-01-20T18:28:22.183Z,64.55
2019-01-20T18:30:52.515Z,59.38
2019-01-20T18:33:22.858Z,63.05
2019-01-20T18:35:52.959Z,58.63
2019-01-20T18:38:23.800Z,63.45
2019-01-20T18:40:55.166Z,70.45
2019-01-20T18:43:27.560Z,69.87
2019-01-20T18:46:01.861Z,71.50
2019-01-20T18:48:31.087Z,71.40
2019-01-20T18:51:01.731Z,72.67
2019-01-20T18:53:34.501Z,71.80
2019-01-20T18:56:04.849Z,73.12
2019-01-20T18:58:35.105Z,73.10
2019-01-20T19:01:05.614Z,72.72
2019-01-20T19:03:35.929Z,76.65
2019-01-20T19:06:07.167Z,72.95
2019-01-20T19:08:37.522Z,77.32
2019-01-20T19:11:07.866Z,72.75
2019-01-20T19:13:38.262Z,71.33
2019-01-20T19:16:08.969Z,74.80
2019-01-20T19:18:39.562Z,70.92
2019-01-20T19:21:10.102Z,67.80
2019-01-20T19:23:40.395Z,72.27
2019-01-20T19:26:10.654Z,79.87
2019-01-20T19:28:41.382Z,79.20
2019-01-20T19:31:11.573Z,85.55
2019-01-20T19:33:42.008Z,83.45
2019-01-20T19:36:12.352Z,83.80
2019-01-20T19:38:42.619Z,87.20
2019-01-20T19:41:12.881Z,88.70
2019-01-20T19:43:43.243Z,86.15
2019-01-20T19:46:16.465Z,82.50
2019-01-20T19:48:45.824Z,86.85
2019-01-20T19:51:17.216Z,87.53
2019-01-20T19:53:52.466Z,73.87
2019-01-20T19:56:22.823Z,69.37
2019-01-20T19:58:53.660Z,68.57
2019-01-20T20:01:30.741Z,73.17
2019-01-20T20:03:56.930Z,70.20
2019-01-20T20:06:27.433Z,70.08
2019-01-20T20:08:57.835Z,71.42
2019-01-20T20:11:28.184Z,68.90
2019-01-20T20:13:58.871Z,69.45
2019-01-20T20:16:29.190Z,79.15
2019-01-20T20:19:00.055Z,81.35
2019-01-20T20:21:33.149Z,79.37
2019-01-20T20:24:03.940Z,89.40
2019-01-20T20:26:37.298Z,76.60
2019-01-20T20:29:07.647Z,77.75
2019-01-20T20:31:38.373Z,72.42
2019-01-20T20:34:08.766Z,76.22
2019-01-20T20:36:39.217Z,74.70
2019-01-20T20:39:09.611Z,77.82
2019-01-20T20:41:42.102Z,75.30
2019-01-20T20:44:12.417Z,81.63
2019-01-20T20:46:43.860Z,72.90
2019-01-20T20:49:14.483Z,78.83
2019-01-20T20:51:44.873Z,69.55
2019-01-20T20:54:16.734Z,84.70
2019-01-20T20:56:47.060Z,83.30
2019-01-20T20:59:17.374Z,87.45
2019-01-20T21:01:47.611Z,102.75
2019-01-20T21:04:17.974Z,87.97
2019-01-20T21:06:48.318Z,75.95
2019-01-20T21:09:18.543Z,80.50
2019-01-20T21:11:48.889Z,81.55
2019-01-20T21:14:19.140Z,84.47
2019-01-20T21:16:49.717Z,81.42
2019-01-20T21:19:20.197Z,78.92
2019-01-20T21:21:50.484Z,75.22
2019-01-20T21:24:20.840Z,77.97
2019-01-20T21:26:51.309Z,72.80
2019-01-20T21:29:22.230Z,75.70
2019-01-20T21:31:52.828Z,81.85
2019-01-20T21:34:23.093Z,75.62
2019-01-20T21:36:53.772Z,77.35
2019-01-20T21:39:24.057Z,75.45
2019-01-20T21:41:54.347Z,71.70
2019-01-20T21:44:24.872Z,73.87
2019-01-20T21:46:56.156Z,76.37
2019-01-20T21:49:27.474Z,75.57
2019-01-20T21:51:57.761Z,73.17
2019-01-20T21:54:28.860Z,76.65
2019-01-20T21:56:59.215Z,75.47
2019-01-20T21:59:29.500Z,77.60
2019-01-20T22:01:59.871Z,103.17
2019-01-20T22:04:30.164Z,75.25
2019-01-20T22:07:00.491Z,75.35
2019-01-20T22:09:31.257Z,73.87
2019-01-20T22:12:01.597Z,75.37
2019-01-20T22:14:31.886Z,75.45
2019-01-20T22:17:02.128Z,73.87
2019-01-20T22:19:32.394Z,72.78
2019-01-20T22:22:02.703Z,73.90
2019-01-20T22:24:32.937Z,73.35
2019-01-20T22:27:03.230Z,72.03
2019-01-20T22:29:33.467Z,72.10
2019-01-20T22:32:03.825Z,70.70
2019-01-20T22:34:34.136Z,72.32
2019-01-20T22:37:04.589Z,71.70
2019-01-20T22:39:34.910Z,70.00
2019-01-20T22:42:05.224Z,66.80
2019-01-20T22:44:35.513Z,67.45
2019-01-20T22:47:05.746Z,67.80
2019-01-20T22:49:36.051Z,67.50
2019-01-20T22:52:06.284Z,66.95
2019-01-20T22:54:36.662Z,66.82
2019-01-20T22:57:06.943Z,68.67
2019-01-20T22:59:37.303Z,65.15
2019-01-20T23:02:07.552Z,65.97
2019-01-20T23:04:37.765Z,67.47
2019-01-20T23:07:08.060Z,65.05
2019-01-20T23:09:38.359Z,65.55
2019-01-20T23:12:08.662Z,65.47
2019-01-20T23:14:38.912Z,63.83
2019-01-20T23:17:09.191Z,63.15
2019-01-20T23:19:39.433Z,63.08
2019-01-20T23:22:09.699Z,62.20
2019-01-20T23:24:40.298Z,62.48
2019-01-20T23:27:10.581Z,60.35
2019-01-20T23:29:41.977Z,61.77
2019-01-20T23:32:12.322Z,60.75
2019-01-20T23:34:42.524Z,59.80
2019-01-20T23:37:12.800Z,58.60
2019-01-20T23:39:43.064Z,59.77
2019-01-20T23:42:13.300Z,58.60
2019-01-20T23:44:44.668Z,58.08
2019-01-20T23:47:15.491Z,58.98
2019-01-20T23:49:45.909Z,59.15
2019-01-20T23:52:16.207Z,58.23
2019-01-20T23:54:46.459Z,57.55
2019-01-20T23:57:16.771Z,55.67
2019-01-20T23:59:47.107Z,55.63
